Hickory, NC

4:20 PM EST on November 27, 2014 (GMT -0500)
Hickory Regional | Change Station
CLOSE
Current Station
Airport
Location: Hickory,
Elevation: 1188 ft
Nearby Weather Stations

Elev 1188 ft 35.74 °N, 81.38 °W | Updated 27 minutes ago

Overcast
Overcast
44 °F
Feels Like 41 °F
N
6
Wind Variable Wind from North

Today
High -- | Low -- °F
--% Chance of Precip.
Yesterday
High -- | Low -- °F
Precip. -- in
7:13 AM 5:12 PM
Waxing Crescent, 33% visible
Pressure 30.12 in
Visibility 10.0 miles
Clouds Mostly Cloudy 5000 ft
Overcast 6500 ft
Windchill 41 °F
Dew Point 26 °F
Humidity 49%
Rainfall 0.02 in
Snow Depth Not available.
UV 0 out of 12
Pollen 1.20 out of 12
Air Quality Not available.
Flu Activity Not available.
METAR KHKY 272053Z AUTO 35005KT 10SM BKN050 OVC065 07/M03 A3014 RMK AO2 SLP200 T00671033 53015

More Conditions Fewer Conditions

Pressure 30.12 in
Visibility 10.0 miles
Clouds Mostly Cloudy 5000 ft
Overcast 6500 ft
Windchill 41 °F
Dew Point 26 °F
Humidity 49%
Rainfall 0.02 in
Snow Depth Not available.
UV 0 out of 12
Pollen 1.20 out of 12
Air Quality Not available.
Flu Activity Not available.
METAR KHKY 272053Z AUTO 35005KT 10SM BKN050 OVC065 07/M03 A3014 RMK AO2 SLP200 T00671033 53015

More Conditions Fewer Conditions

10-Day Weather Forecast

Almanac

Astronomy

Nov. 27, 2014 Rise Set
Actual Time
Civil Twilight
Nautical Twilight
Astronomical Twilight
Moon
Length of Visible Light
Length of Day
Tomorrow will be .
, % of the Moon is Illuminated

Today's Extremes

State Highs State Lows

Community

WunderPhotos

Upload Photos

1,774,108 photos uploaded!

WunderBlogs® & News

Nearby

Air Quality

  Air Quality AQ Index Pollutant
Not available.

Snow Depth

Station Depth Elevation

Earthquake Activity

City Distance Mag. Time & Date
Minimum magnitude displayed is 2.5.

Coastal Water Temperatures

Place Temperature

Nearby Weather Stations